MAYO2: W. D. Mayo Lock And Dam (L&D 14)

Data processed at Thu Jan 04 2018 23:30


All information presented herein is the property of the government of the United States of America and may be revised or deleted at any time without prior notice.
Dissemination of this information without the expressed written consent of the Public Affairs Office, Tulsa District U.S. Army Corps of Engineers is strictly prohibited.
These data are gathered electronically and, as presented, have not undergone any form of quality control. These data are not guaranteed to be valid or correct.
Go to home page.
Go to station list.

Upstream stations:

Downstream station:
Previous Day
Next Day
Current Day
    
SHEF ID:       MAYO2     W. D. Mayo Lock And Dam (L&D 14)
STATION TYPE:  NAVIGATION LOCK
Normal Pool:  Bottom =   411.00, Top =   413.00

               PRECIP ELEVATION   STORAGE   TW-ELEV LOCK-ELEV    INFLOW   RELEASE  AIR-TEMP  WIND-DIRWIND-SPEED REL-HUMID SOLAR-RAD   VOLTAGE  BAT-LOAD
                   in        ft     ac-ft        ft        ft       cfs       cfs         F       deg       mph         %      W/m2      volt      volt
              Ccp-Rev   Ccp-Rev   Ccp-Rev   Ccp-Rev   Ccp-Rev  Regi-Rev  Regi-Rev   Ccp-Rev   Ccp-Rev   Ccp-Rev   Ccp-Rev   Ccp-Rev   Ccp-Rev   Ccp-Rev
(US/Central)
01/02 00:00      0.00    412.80     15402    390.22    412.89         0         0     19.27     81.10      2.20     60.78      0.00     13.57     13.44
01/02 01:00      0.00    412.78     15371    390.19    412.87         4         0     19.67    100.00      1.50     58.08      0.00     13.57     13.44
01/02 02:00      0.00    412.92     15592    390.19    413.03         7         0     19.40    104.90      2.00     54.24      0.00     13.57     13.44
01/02 03:00      0.00    412.96     15655    390.22    413.01        29         0     19.44    101.30      1.60     52.92      0.00     13.57     13.44
01/02 04:00      0.00    412.41     14795    390.25    410.74        92         0     19.42     86.60      1.70     52.09      0.00     13.57     13.44
01/02 05:00      0.00    412.65     15167    390.25    404.42      4508         0     19.24     77.20      1.60     52.13      0.00     13.57     13.44
01/02 06:00      0.00    412.88     15528    390.20    404.49      9698         0     19.09     93.20      2.00     51.74      0.00     13.57     13.44
01/02 07:00      0.00    412.71     15261    390.17    404.50     15700     25317     19.22    113.70      2.50     50.72      0.00     13.57     13.44
01/02 08:00      0.00    412.74     15308    390.16    404.40     22221     25400     19.20    107.30      2.30     50.15      0.00     13.56     13.44
01/02 09:00      0.00    412.54     14996    390.15    404.42     29132     33800     19.38    118.40      2.90     49.64     27.70     13.57     13.44
01/02 10:00      0.00    412.48     14903    390.17    404.43     25781     33840     20.10    105.60      2.20     48.40     84.80     13.57     13.44
01/02 11:00      0.00    412.98     15687    390.16    404.36     20942     25381     20.75    139.30      1.90     45.71    115.50     13.57     13.44
01/02 12:00      0.00    412.37     14734    390.20    391.97     15291     16860     21.56     43.90      2.40     42.60    169.50     13.57     13.44
01/02 13:00      0.00    412.78     15371    390.20    392.07     10191         0     22.82     97.70      2.30     38.57    259.60     13.56     13.44
01/02 14:00      0.00    412.56     15027    391.87    412.69      3218         0     23.88     31.10      2.00     36.15    198.00     13.56     13.44
01/02 15:00      0.00    412.96     15655    391.60    391.83      2153         0     23.77    353.70      2.70     35.86    121.70     13.57     13.44
01/02 16:00      0.00    412.94     15624    393.05    412.95      6788         0     24.49     29.40      2.00     34.97    118.00     13.56     13.44
01/02 17:00      0.00    412.94     15624    393.13    413.05      9611         0     24.67    112.60      1.00     34.47     20.90     13.57     13.44
01/02 18:00      0.00    413.17     15991    392.92    393.16     11580     20504     24.06    220.00      0.60     34.56      0.00     13.57     13.44
01/02 19:00      0.00    412.60     15089    391.23    412.73     11580     20525     23.77    203.10      1.80     35.94      0.00     13.57     13.44
01/02 20:00      0.00    412.65     15167    391.93    392.02     11580     20439     23.74    195.10      1.40     39.52      0.00     13.58     13.44
01/02 21:00      0.00    412.70     15245    391.89    392.11      6591         0     21.85    206.80      0.60     44.79      0.00     13.57     13.44
01/02 22:00      0.00    412.76     15339    391.33    391.51      3413         0     18.77    216.50      1.20     54.72      0.00     13.57     13.44
01/02 23:00      0.00    412.75     15323    391.65    391.86         0         0     18.00    251.00      1.40     50.38      0.00     13.58     13.44